Terminal Aerodrome Forecast
Issued by NWS

Home | Current Version | Previous Version | Text Only | Print | Product List | Glossary On
Versions: 1 2 3 4 5 6 7 8 9 10 11 12 13 14 15 16 17 18 19 20 21 22 23 24 25 26
060
FTUS41 KBUF 260539
TAFJHW
TAF
KJHW 260539Z 2606/2706 25004KT P6SM SCT007 OVC015
     FM260800 27004KT 4SM BR BKN007
     FM261000 29006KT 3SM BR OVC003
     FM261400 28010KT P6SM VCSH OVC007
     FM262000 27010KT P6SM BKN015
      AMD LTD TO CLD VIS AND WIND=

USA.gov is the U.S. government's official web portal to all federal, state and local government web resources and services.